sensor_id;sensor_type;location;lat;lon;timestamp;P1;durP1;ratioP1;P2;durP2;ratioP2
68951;SDS011;56000;51.146;17.112;2023-06-26T00:00:22;9.40;;;6.60;;
68951;SDS011;56000;51.146;17.112;2023-06-26T00:03:15;9.80;;;6.30;;
68951;SDS011;56000;51.146;17.112;2023-06-26T00:05:48;10.60;;;6.70;;
68951;SDS011;56000;51.146;17.112;2023-06-26T00:08:21;11.10;;;6.90;;
68951;SDS011;56000;51.146;17.112;2023-06-26T00:10:54;8.10;;;5.90;;
68951;SDS011;56000;51.146;17.112;2023-06-26T00:13:28;10.40;;;6.80;;
68951;SDS011;56000;51.146;17.112;2023-06-26T00:16:01;13.20;;;6.80;;
68951;SDS011;56000;51.146;17.112;2023-06-26T00:18:34;11.50;;;6.90;;
68951;SDS011;56000;51.146;17.112;2023-06-26T00:21:07;14.30;;;7.00;;
68951;SDS011;56000;51.146;17.112;2023-06-26T00:23:41;12.70;;;7.20;;
68951;SDS011;56000;51.146;17.112;2023-06-26T00:26:14;16.80;;;7.40;;
68951;SDS011;56000;51.146;17.112;2023-06-26T00:28:47;18.50;;;7.50;;
68951;SDS011;56000;51.146;17.112;2023-06-26T00:31:20;12.00;;;7.30;;
68951;SDS011;56000;51.146;17.112;2023-06-26T00:33:53;15.30;;;6.70;;
68951;SDS011;56000;51.146;17.112;2023-06-26T00:36:26;10.40;;;6.80;;
68951;SDS011;56000;51.146;17.112;2023-06-26T00:39:00;16.10;;;6.50;;
68951;SDS011;56000;51.146;17.112;2023-06-26T00:41:33;16.60;;;7.40;;
68951;SDS011;56000;51.146;17.112;2023-06-26T00:44:07;13.60;;;8.00;;
68951;SDS011;56000;51.146;17.112;2023-06-26T00:46:40;12.60;;;7.80;;
68951;SDS011;56000;51.146;17.112;2023-06-26T00:49:14;13.10;;;7.90;;
68951;SDS011;56000;51.146;17.112;2023-06-26T00:51:48;12.30;;;6.80;;
68951;SDS011;56000;51.146;17.112;2023-06-26T00:54:21;13.20;;;6.80;;
68951;SDS011;56000;51.146;17.112;2023-06-26T00:56:55;10.80;;;6.70;;
68951;SDS011;56000;51.146;17.112;2023-06-26T00:59:28;12.20;;;6.80;;
68951;SDS011;56000;51.146;17.112;2023-06-26T01:02:02;13.70;;;7.80;;
68951;SDS011;56000;51.146;17.112;2023-06-26T01:04:35;13.90;;;7.80;;
68951;SDS011;56000;51.146;17.112;2023-06-26T01:07:16;12.30;;;8.20;;
68951;SDS011;56000;51.146;17.112;2023-06-26T01:09:50;15.30;;;8.30;;
68951;SDS011;56000;51.146;17.112;2023-06-26T01:12:23;16.00;;;7.90;;
68951;SDS011;56000;51.146;17.112;2023-06-26T01:14:57;17.00;;;7.60;;
68951;SDS011;56000;51.146;17.112;2023-06-26T01:17:31;16.20;;;8.50;;
68951;SDS011;56000;51.146;17.112;2023-06-26T01:20:07;19.20;;;8.10;;
68951;SDS011;56000;51.146;17.112;2023-06-26T01:22:45;12.60;;;8.30;;
68951;SDS011;56000;51.146;17.112;2023-06-26T01:25:33;13.90;;;8.30;;
68951;SDS011;56000;51.146;17.112;2023-06-26T01:28:13;16.50;;;8.10;;
68951;SDS011;56000;51.146;17.112;2023-06-26T01:30:48;16.90;;;9.00;;
68951;SDS011;56000;51.146;17.112;2023-06-26T01:33:22;12.70;;;8.60;;
68951;SDS011;56000;51.146;17.112;2023-06-26T01:35:55;18.70;;;8.40;;
68951;SDS011;56000;51.146;17.112;2023-06-26T01:38:30;10.80;;;6.80;;
68951;SDS011;56000;51.146;17.112;2023-06-26T01:41:05;12.10;;;7.00;;
68951;SDS011;56000;51.146;17.112;2023-06-26T01:43:46;16.80;;;8.50;;
68951;SDS011;56000;51.146;17.112;2023-06-26T01:46:43;14.10;;;8.10;;
68951;SDS011;56000;51.146;17.112;2023-06-26T01:49:33;14.40;;;9.40;;
68951;SDS011;56000;51.146;17.112;2023-06-26T01:52:19;15.60;;;8.00;;
68951;SDS011;56000;51.146;17.112;2023-06-26T01:54:58;12.80;;;8.70;;
68951;SDS011;56000;51.146;17.112;2023-06-26T01:57:39;13.30;;;8.50;;
68951;SDS011;56000;51.146;17.112;2023-06-26T02:00:14;15.40;;;8.20;;
68951;SDS011;56000;51.146;17.112;2023-06-26T02:02:51;16.60;;;7.30;;
68951;SDS011;56000;51.146;17.112;2023-06-26T02:05:25;12.90;;;7.40;;
68951;SDS011;56000;51.146;17.112;2023-06-26T02:08:01;19.70;;;7.90;;
68951;SDS011;56000;51.146;17.112;2023-06-26T02:10:34;15.00;;;8.50;;
68951;SDS011;56000;51.146;17.112;2023-06-26T02:13:08;11.30;;;6.80;;
68951;SDS011;56000;51.146;17.112;2023-06-26T02:15:42;13.80;;;8.00;;
68951;SDS011;56000;51.146;17.112;2023-06-26T02:18:16;13.70;;;7.90;;
68951;SDS011;56000;51.146;17.112;2023-06-26T02:20:52;15.70;;;9.20;;
68951;SDS011;56000;51.146;17.112;2023-06-26T02:23:25;19.50;;;9.90;;
68951;SDS011;56000;51.146;17.112;2023-06-26T02:25:59;12.10;;;8.90;;
68951;SDS011;56000;51.146;17.112;2023-06-26T02:28:32;21.60;;;9.40;;
68951;SDS011;56000;51.146;17.112;2023-06-26T02:31:06;13.60;;;8.20;;
68951;SDS011;56000;51.146;17.112;2023-06-26T02:33:39;14.50;;;8.20;;
68951;SDS011;56000;51.146;17.112;2023-06-26T02:36:12;12.60;;;7.40;;
68951;SDS011;56000;51.146;17.112;2023-06-26T02:38:45;11.40;;;7.30;;
68951;SDS011;56000;51.146;17.112;2023-06-26T02:41:18;17.60;;;8.20;;
68951;SDS011;56000;51.146;17.112;2023-06-26T02:43:52;12.10;;;8.10;;
68951;SDS011;56000;51.146;17.112;2023-06-26T02:46:25;10.80;;;7.10;;
68951;SDS011;56000;51.146;17.112;2023-06-26T02:48:59;12.40;;;7.70;;
68951;SDS011;56000;51.146;17.112;2023-06-26T02:51:33;11.10;;;6.70;;
68951;SDS011;56000;51.146;17.112;2023-06-26T02:54:11;10.70;;;7.30;;
68951;SDS011;56000;51.146;17.112;2023-06-26T02:56:44;12.10;;;7.70;;
68951;SDS011;56000;51.146;17.112;2023-06-26T02:59:19;12.60;;;8.20;;
68951;SDS011;56000;51.146;17.112;2023-06-26T03:01:52;15.60;;;8.20;;
68951;SDS011;56000;51.146;17.112;2023-06-26T03:04:31;15.60;;;8.80;;
68951;SDS011;56000;51.146;17.112;2023-06-26T03:07:07;12.10;;;7.90;;
68951;SDS011;56000;51.146;17.112;2023-06-26T03:09:43;13.70;;;8.80;;
68951;SDS011;56000;51.146;17.112;2023-06-26T03:12:16;15.80;;;8.50;;
68951;SDS011;56000;51.146;17.112;2023-06-26T03:14:49;21.50;;;10.50;;
68951;SDS011;56000;51.146;17.112;2023-06-26T03:17:22;22.50;;;10.10;;
68951;SDS011;56000;51.146;17.112;2023-06-26T03:19:57;16.60;;;8.50;;
68951;SDS011;56000;51.146;17.112;2023-06-26T03:22:37;12.80;;;8.10;;
68951;SDS011;56000;51.146;17.112;2023-06-26T03:25:11;12.70;;;8.20;;
68951;SDS011;56000;51.146;17.112;2023-06-26T03:27:44;21.30;;;9.00;;
68951;SDS011;56000;51.146;17.112;2023-06-26T03:30:19;14.80;;;8.00;;
68951;SDS011;56000;51.146;17.112;2023-06-26T03:32:53;15.80;;;8.60;;
68951;SDS011;56000;51.146;17.112;2023-06-26T03:35:26;14.40;;;8.50;;
68951;SDS011;56000;51.146;17.112;2023-06-26T03:37:59;16.10;;;7.60;;
68951;SDS011;56000;51.146;17.112;2023-06-26T03:40:33;13.90;;;7.50;;
68951;SDS011;56000;51.146;17.112;2023-06-26T03:43:06;15.30;;;8.10;;
68951;SDS011;56000;51.146;17.112;2023-06-26T03:45:58;15.10;;;8.30;;
68951;SDS011;56000;51.146;17.112;2023-06-26T03:48:32;14.30;;;8.00;;
68951;SDS011;56000;51.146;17.112;2023-06-26T03:51:05;15.80;;;8.90;;
68951;SDS011;56000;51.146;17.112;2023-06-26T03:53:40;15.40;;;8.70;;
68951;SDS011;56000;51.146;17.112;2023-06-26T03:56:13;16.00;;;9.10;;
68951;SDS011;56000;51.146;17.112;2023-06-26T03:58:46;17.50;;;9.20;;
68951;SDS011;56000;51.146;17.112;2023-06-26T04:01:20;13.60;;;9.20;;
68951;SDS011;56000;51.146;17.112;2023-06-26T04:03:53;13.50;;;7.90;;
68951;SDS011;56000;51.146;17.112;2023-06-26T04:06:26;10.80;;;8.00;;
68951;SDS011;56000;51.146;17.112;2023-06-26T04:09:02;14.40;;;8.20;;
68951;SDS011;56000;51.146;17.112;2023-06-26T04:11:35;16.50;;;8.10;;
68951;SDS011;56000;51.146;17.112;2023-06-26T04:14:08;14.10;;;7.70;;
68951;SDS011;56000;51.146;17.112;2023-06-26T04:16:43;12.60;;;6.90;;
68951;SDS011;56000;51.146;17.112;2023-06-26T04:19:17;15.10;;;8.20;;
68951;SDS011;56000;51.146;17.112;2023-06-26T04:21:50;10.90;;;7.40;;
68951;SDS011;56000;51.146;17.112;2023-06-26T04:24:23;14.70;;;8.20;;
68951;SDS011;56000;51.146;17.112;2023-06-26T04:26:56;14.10;;;7.90;;
68951;SDS011;56000;51.146;17.112;2023-06-26T04:29:29;15.50;;;7.10;;
68951;SDS011;56000;51.146;17.112;2023-06-26T04:32:06;12.60;;;7.50;;
68951;SDS011;56000;51.146;17.112;2023-06-26T04:34:39;11.70;;;7.30;;
68951;SDS011;56000;51.146;17.112;2023-06-26T04:37:14;18.50;;;8.10;;
68951;SDS011;56000;51.146;17.112;2023-06-26T04:39:47;12.00;;;6.90;;
68951;SDS011;56000;51.146;17.112;2023-06-26T04:42:20;21.20;;;8.20;;
68951;SDS011;56000;51.146;17.112;2023-06-26T04:44:53;20.10;;;7.70;;
68951;SDS011;56000;51.146;17.112;2023-06-26T04:47:26;12.40;;;7.60;;
68951;SDS011;56000;51.146;17.112;2023-06-26T04:50:00;15.30;;;8.20;;
68951;SDS011;56000;51.146;17.112;2023-06-26T04:52:33;13.40;;;8.10;;
68951;SDS011;56000;51.146;17.112;2023-06-26T04:55:07;17.30;;;7.70;;
68951;SDS011;56000;51.146;17.112;2023-06-26T04:57:40;10.60;;;7.60;;
68951;SDS011;56000;51.146;17.112;2023-06-26T05:00:15;14.20;;;7.90;;
68951;SDS011;56000;51.146;17.112;2023-06-26T05:02:49;13.90;;;6.90;;
68951;SDS011;56000;51.146;17.112;2023-06-26T05:05:29;19.20;;;7.70;;
68951;SDS011;56000;51.146;17.112;2023-06-26T05:08:14;12.70;;;7.10;;
68951;SDS011;56000;51.146;17.112;2023-06-26T05:10:49;12.40;;;7.50;;
68951;SDS011;56000;51.146;17.112;2023-06-26T05:13:23;15.80;;;6.50;;
68951;SDS011;56000;51.146;17.112;2023-06-26T05:15:56;15.30;;;8.20;;
68951;SDS011;56000;51.146;17.112;2023-06-26T05:18:29;11.30;;;7.50;;
68951;SDS011;56000;51.146;17.112;2023-06-26T05:21:03;9.30;;;5.90;;
68951;SDS011;56000;51.146;17.112;2023-06-26T05:23:37;11.00;;;6.80;;
68951;SDS011;56000;51.146;17.112;2023-06-26T05:26:12;11.10;;;7.00;;
68951;SDS011;56000;51.146;17.112;2023-06-26T05:28:47;12.20;;;5.90;;
68951;SDS011;56000;51.146;17.112;2023-06-26T05:31:21;10.10;;;5.90;;
68951;SDS011;56000;51.146;17.112;2023-06-26T05:33:55;17.30;;;6.70;;
68951;SDS011;56000;51.146;17.112;2023-06-26T05:36:32;10.60;;;6.50;;
68951;SDS011;56000;51.146;17.112;2023-06-26T05:39:08;12.90;;;6.50;;
68951;SDS011;56000;51.146;17.112;2023-06-26T05:41:42;9.90;;;6.60;;
68951;SDS011;56000;51.146;17.112;2023-06-26T05:44:16;11.40;;;6.40;;
68951;SDS011;56000;51.146;17.112;2023-06-26T05:46:49;13.80;;;6.10;;
68951;SDS011;56000;51.146;17.112;2023-06-26T05:49:23;11.00;;;5.90;;
68951;SDS011;56000;51.146;17.112;2023-06-26T05:51:56;9.00;;;5.90;;
68951;SDS011;56000;51.146;17.112;2023-06-26T05:54:31;8.80;;;6.40;;
68951;SDS011;56000;51.146;17.112;2023-06-26T05:57:06;9.90;;;5.60;;
68951;SDS011;56000;51.146;17.112;2023-06-26T05:59:40;9.80;;;5.50;;
68951;SDS011;56000;51.146;17.112;2023-06-26T06:02:14;9.80;;;5.80;;
68951;SDS011;56000;51.146;17.112;2023-06-26T06:04:47;10.20;;;5.10;;
68951;SDS011;56000;51.146;17.112;2023-06-26T06:07:20;11.50;;;6.60;;
68951;SDS011;56000;51.146;17.112;2023-06-26T06:09:54;13.70;;;6.00;;
68951;SDS011;56000;51.146;17.112;2023-06-26T06:12:27;11.00;;;5.90;;
68951;SDS011;56000;51.146;17.112;2023-06-26T06:15:00;12.00;;;6.60;;
68951;SDS011;56000;51.146;17.112;2023-06-26T06:17:33;12.60;;;5.90;;
68951;SDS011;56000;51.146;17.112;2023-06-26T06:20:07;9.90;;;5.20;;
68951;SDS011;56000;51.146;17.112;2023-06-26T06:22:41;11.90;;;5.70;;
68951;SDS011;56000;51.146;17.112;2023-06-26T06:25:14;12.00;;;5.80;;
68951;SDS011;56000;51.146;17.112;2023-06-26T06:27:48;8.90;;;5.80;;
68951;SDS011;56000;51.146;17.112;2023-06-26T06:30:21;11.30;;;6.00;;
68951;SDS011;56000;51.146;17.112;2023-06-26T06:33:12;13.40;;;6.20;;
68951;SDS011;56000;51.146;17.112;2023-06-26T06:35:46;11.20;;;6.60;;
68951;SDS011;56000;51.146;17.112;2023-06-26T06:38:19;14.10;;;6.40;;
68951;SDS011;56000;51.146;17.112;2023-06-26T06:40:52;16.30;;;6.00;;
68951;SDS011;56000;51.146;17.112;2023-06-26T06:43:26;13.10;;;6.00;;
68951;SDS011;56000;51.146;17.112;2023-06-26T06:45:59;14.70;;;5.60;;
68951;SDS011;56000;51.146;17.112;2023-06-26T06:48:32;11.40;;;6.10;;
68951;SDS011;56000;51.146;17.112;2023-06-26T06:51:05;16.70;;;6.60;;
68951;SDS011;56000;51.146;17.112;2023-06-26T06:53:39;10.60;;;6.30;;
68951;SDS011;56000;51.146;17.112;2023-06-26T06:56:12;9.50;;;5.50;;
68951;SDS011;56000;51.146;17.112;2023-06-26T06:58:45;12.10;;;5.20;;
68951;SDS011;56000;51.146;17.112;2023-06-26T07:01:19;11.50;;;5.60;;
68951;SDS011;56000;51.146;17.112;2023-06-26T07:03:52;8.20;;;5.30;;
68951;SDS011;56000;51.146;17.112;2023-06-26T07:06:26;8.80;;;5.60;;
68951;SDS011;56000;51.146;17.112;2023-06-26T07:08:59;9.60;;;5.60;;
68951;SDS011;56000;51.146;17.112;2023-06-26T07:11:32;8.90;;;6.70;;
68951;SDS011;56000;51.146;17.112;2023-06-26T07:14:05;10.60;;;6.00;;
68951;SDS011;56000;51.146;17.112;2023-06-26T07:16:39;15.70;;;5.30;;
68951;SDS011;56000;51.146;17.112;2023-06-26T07:19:12;8.40;;;4.70;;
68951;SDS011;56000;51.146;17.112;2023-06-26T07:21:45;10.10;;;5.00;;
68951;SDS011;56000;51.146;17.112;2023-06-26T07:24:18;11.00;;;4.80;;
68951;SDS011;56000;51.146;17.112;2023-06-26T07:26:51;9.20;;;4.50;;
68951;SDS011;56000;51.146;17.112;2023-06-26T07:29:25;7.90;;;4.10;;
68951;SDS011;56000;51.146;17.112;2023-06-26T07:31:58;10.60;;;4.50;;
68951;SDS011;56000;51.146;17.112;2023-06-26T07:34:31;8.50;;;4.70;;
68951;SDS011;56000;51.146;17.112;2023-06-26T07:37:05;5.80;;;4.30;;
68951;SDS011;56000;51.146;17.112;2023-06-26T07:39:38;9.20;;;4.40;;
68951;SDS011;56000;51.146;17.112;2023-06-26T07:42:11;8.70;;;4.60;;
68951;SDS011;56000;51.146;17.112;2023-06-26T07:44:44;4.80;;;3.90;;
68951;SDS011;56000;51.146;17.112;2023-06-26T07:47:17;6.40;;;4.40;;
68951;SDS011;56000;51.146;17.112;2023-06-26T07:49:51;10.10;;;4.80;;
68951;SDS011;56000;51.146;17.112;2023-06-26T07:52:24;10.10;;;3.90;;
68951;SDS011;56000;51.146;17.112;2023-06-26T07:54:57;8.70;;;4.30;;
68951;SDS011;56000;51.146;17.112;2023-06-26T07:57:31;7.70;;;4.30;;
68951;SDS011;56000;51.146;17.112;2023-06-26T08:00:05;4.80;;;3.80;;
68951;SDS011;56000;51.146;17.112;2023-06-26T08:02:43;6.30;;;4.00;;
68951;SDS011;56000;51.146;17.112;2023-06-26T08:05:16;7.90;;;4.30;;
68951;SDS011;56000;51.146;17.112;2023-06-26T08:07:50;9.50;;;4.60;;
68951;SDS011;56000;51.146;17.112;2023-06-26T08:10:23;8.30;;;4.60;;
68951;SDS011;56000;51.146;17.112;2023-06-26T08:12:56;7.50;;;3.70;;
68951;SDS011;56000;51.146;17.112;2023-06-26T08:15:29;6.50;;;3.90;;
68951;SDS011;56000;51.146;17.112;2023-06-26T08:18:02;7.90;;;4.00;;
68951;SDS011;56000;51.146;17.112;2023-06-26T08:20:35;6.80;;;3.70;;
68951;SDS011;56000;51.146;17.112;2023-06-26T08:23:09;5.40;;;3.90;;
68951;SDS011;56000;51.146;17.112;2023-06-26T08:25:42;6.10;;;3.40;;
68951;SDS011;56000;51.146;17.112;2023-06-26T08:28:17;6.30;;;4.00;;
68951;SDS011;56000;51.146;17.112;2023-06-26T08:30:50;6.10;;;3.30;;
68951;SDS011;56000;51.146;17.112;2023-06-26T08:33:24;3.90;;;3.30;;
68951;SDS011;56000;51.146;17.112;2023-06-26T08:35:57;6.60;;;3.80;;
68951;SDS011;56000;51.146;17.112;2023-06-26T08:38:31;5.00;;;3.30;;
68951;SDS011;56000;51.146;17.112;2023-06-26T08:41:04;4.80;;;3.50;;
68951;SDS011;56000;51.146;17.112;2023-06-26T08:43:39;6.20;;;3.30;;
68951;SDS011;56000;51.146;17.112;2023-06-26T08:46:13;8.40;;;3.60;;
68951;SDS011;56000;51.146;17.112;2023-06-26T08:48:52;4.90;;;3.40;;
68951;SDS011;56000;51.146;17.112;2023-06-26T08:51:28;4.80;;;3.30;;
68951;SDS011;56000;51.146;17.112;2023-06-26T08:54:07;4.60;;;3.40;;
68951;SDS011;56000;51.146;17.112;2023-06-26T08:56:44;6.80;;;3.80;;
68951;SDS011;56000;51.146;17.112;2023-06-26T08:59:20;6.20;;;3.50;;
68951;SDS011;56000;51.146;17.112;2023-06-26T09:01:54;4.00;;;3.00;;
68951;SDS011;56000;51.146;17.112;2023-06-26T09:04:28;6.90;;;4.30;;
68951;SDS011;56000;51.146;17.112;2023-06-26T09:07:01;7.40;;;3.40;;
68951;SDS011;56000;51.146;17.112;2023-06-26T09:09:35;4.40;;;3.50;;
68951;SDS011;56000;51.146;17.112;2023-06-26T09:12:09;5.60;;;3.70;;
68951;SDS011;56000;51.146;17.112;2023-06-26T09:14:43;5.70;;;3.30;;
68951;SDS011;56000;51.146;17.112;2023-06-26T09:17:16;4.20;;;3.20;;
68951;SDS011;56000;51.146;17.112;2023-06-26T09:19:49;4.20;;;3.40;;
68951;SDS011;56000;51.146;17.112;2023-06-26T09:22:22;6.30;;;3.50;;
68951;SDS011;56000;51.146;17.112;2023-06-26T09:24:55;8.10;;;3.40;;
68951;SDS011;56000;51.146;17.112;2023-06-26T09:27:29;6.20;;;3.70;;
68951;SDS011;56000;51.146;17.112;2023-06-26T09:30:03;7.10;;;3.50;;
68951;SDS011;56000;51.146;17.112;2023-06-26T09:32:38;7.00;;;3.50;;
68951;SDS011;56000;51.146;17.112;2023-06-26T09:35:11;4.60;;;3.20;;
68951;SDS011;56000;51.146;17.112;2023-06-26T09:37:45;8.90;;;3.30;;
68951;SDS011;56000;51.146;17.112;2023-06-26T09:40:18;4.30;;;3.00;;
68951;SDS011;56000;51.146;17.112;2023-06-26T09:42:51;3.40;;;2.80;;
68951;SDS011;56000;51.146;17.112;2023-06-26T09:45:24;5.20;;;3.10;;
68951;SDS011;56000;51.146;17.112;2023-06-26T09:47:59;4.80;;;3.70;;
68951;SDS011;56000;51.146;17.112;2023-06-26T09:50:34;18.80;;;5.80;;
68951;SDS011;56000;51.146;17.112;2023-06-26T09:53:12;4.60;;;3.40;;
68951;SDS011;56000;51.146;17.112;2023-06-26T09:55:48;11.30;;;5.10;;
68951;SDS011;56000;51.146;17.112;2023-06-26T09:58:21;7.40;;;3.60;;
68951;SDS011;56000;51.146;17.112;2023-06-26T10:00:56;8.20;;;3.50;;
68951;SDS011;56000;51.146;17.112;2023-06-26T10:03:30;5.20;;;3.40;;
68951;SDS011;56000;51.146;17.112;2023-06-26T10:06:03;6.70;;;3.50;;
68951;SDS011;56000;51.146;17.112;2023-06-26T10:08:39;5.30;;;3.00;;
68951;SDS011;56000;51.146;17.112;2023-06-26T10:11:14;6.90;;;3.00;;
68951;SDS011;56000;51.146;17.112;2023-06-26T10:13:52;6.00;;;3.30;;
68951;SDS011;56000;51.146;17.112;2023-06-26T10:16:46;4.10;;;3.30;;
68951;SDS011;56000;51.146;17.112;2023-06-26T10:19:21;3.80;;;2.60;;
68951;SDS011;56000;51.146;17.112;2023-06-26T10:21:56;6.40;;;3.50;;
68951;SDS011;56000;51.146;17.112;2023-06-26T10:24:31;5.50;;;3.20;;
68951;SDS011;56000;51.146;17.112;2023-06-26T10:27:17;3.90;;;3.00;;
68951;SDS011;56000;51.146;17.112;2023-06-26T10:29:53;4.90;;;3.30;;
68951;SDS011;56000;51.146;17.112;2023-06-26T10:32:27;11.30;;;3.40;;
68951;SDS011;56000;51.146;17.112;2023-06-26T10:35:01;3.50;;;2.70;;
68951;SDS011;56000;51.146;17.112;2023-06-26T10:37:47;6.00;;;3.40;;
68951;SDS011;56000;51.146;17.112;2023-06-26T10:40:27;8.50;;;3.30;;
68951;SDS011;56000;51.146;17.112;2023-06-26T10:43:11;3.70;;;2.80;;
68951;SDS011;56000;51.146;17.112;2023-06-26T10:45:48;4.10;;;3.00;;
68951;SDS011;56000;51.146;17.112;2023-06-26T10:48:25;3.10;;;2.70;;
68951;SDS011;56000;51.146;17.112;2023-06-26T10:51:09;5.90;;;3.10;;
68951;SDS011;56000;51.146;17.112;2023-06-26T10:53:46;7.50;;;3.40;;
68951;SDS011;56000;51.146;17.112;2023-06-26T11:01:56;8.40;;;4.00;;
68951;SDS011;56000;51.146;17.112;2023-06-26T11:04:44;12.80;;;4.50;;
68951;SDS011;56000;51.146;17.112;2023-06-26T11:07:20;4.60;;;2.90;;
68951;SDS011;56000;51.146;17.112;2023-06-26T11:10:01;6.00;;;3.10;;
68951;SDS011;56000;51.146;17.112;2023-06-26T11:12:40;4.80;;;3.30;;
68951;SDS011;56000;51.146;17.112;2023-06-26T11:15:18;3.70;;;2.80;;
68951;SDS011;56000;51.146;17.112;2023-06-26T11:17:52;6.20;;;3.20;;
68951;SDS011;56000;51.146;17.112;2023-06-26T11:20:26;8.10;;;3.10;;
68951;SDS011;56000;51.146;17.112;2023-06-26T11:23:00;5.10;;;4.00;;
68951;SDS011;56000;51.146;17.112;2023-06-26T11:25:37;3.60;;;2.60;;
68951;SDS011;56000;51.146;17.112;2023-06-26T11:28:10;6.90;;;2.90;;
68951;SDS011;56000;51.146;17.112;2023-06-26T11:30:44;5.70;;;3.10;;
68951;SDS011;56000;51.146;17.112;2023-06-26T11:33:17;5.20;;;3.10;;
68951;SDS011;56000;51.146;17.112;2023-06-26T11:35:57;3.40;;;2.80;;
68951;SDS011;56000;51.146;17.112;2023-06-26T11:38:41;6.90;;;3.50;;
68951;SDS011;56000;51.146;17.112;2023-06-26T11:41:19;8.70;;;3.30;;
68951;SDS011;56000;51.146;17.112;2023-06-26T11:43:53;8.60;;;3.30;;
68951;SDS011;56000;51.146;17.112;2023-06-26T11:46:27;4.20;;;2.80;;
68951;SDS011;56000;51.146;17.112;2023-06-26T11:49:02;3.20;;;2.40;;
68951;SDS011;56000;51.146;17.112;2023-06-26T11:51:35;4.00;;;3.00;;
68951;SDS011;56000;51.146;17.112;2023-06-26T11:54:10;5.20;;;2.60;;
68951;SDS011;56000;51.146;17.112;2023-06-26T11:56:44;5.20;;;2.80;;
68951;SDS011;56000;51.146;17.112;2023-06-26T11:59:33;4.90;;;2.90;;
68951;SDS011;56000;51.146;17.112;2023-06-26T12:02:08;5.70;;;2.80;;
68951;SDS011;56000;51.146;17.112;2023-06-26T12:04:44;4.20;;;2.70;;
68951;SDS011;56000;51.146;17.112;2023-06-26T12:07:18;4.90;;;2.50;;
68951;SDS011;56000;51.146;17.112;2023-06-26T12:09:53;4.80;;;2.80;;
68951;SDS011;56000;51.146;17.112;2023-06-26T12:12:28;3.50;;;3.00;;
68951;SDS011;56000;51.146;17.112;2023-06-26T12:15:03;5.50;;;3.20;;
68951;SDS011;56000;51.146;17.112;2023-06-26T12:17:39;3.70;;;2.70;;
68951;SDS011;56000;51.146;17.112;2023-06-26T12:20:23;3.00;;;2.80;;
68951;SDS011;56000;51.146;17.112;2023-06-26T12:23:00;3.30;;;2.90;;
68951;SDS011;56000;51.146;17.112;2023-06-26T12:25:42;3.80;;;2.80;;
68951;SDS011;56000;51.146;17.112;2023-06-26T12:28:20;4.30;;;2.70;;
68951;SDS011;56000;51.146;17.112;2023-06-26T12:31:15;2.90;;;2.60;;
68951;SDS011;56000;51.146;17.112;2023-06-26T12:33:53;4.90;;;3.00;;
68951;SDS011;56000;51.146;17.112;2023-06-26T12:36:26;3.50;;;2.70;;
68951;SDS011;56000;51.146;17.112;2023-06-26T12:39:02;5.70;;;2.60;;
68951;SDS011;56000;51.146;17.112;2023-06-26T12:41:35;4.80;;;2.60;;
68951;SDS011;56000;51.146;17.112;2023-06-26T12:44:22;2.80;;;2.40;;
68951;SDS011;56000;51.146;17.112;2023-06-26T12:46:58;21.80;;;3.90;;
68951;SDS011;56000;51.146;17.112;2023-06-26T12:49:33;4.60;;;3.00;;
68951;SDS011;56000;51.146;17.112;2023-06-26T12:52:09;4.80;;;2.80;;
68951;SDS011;56000;51.146;17.112;2023-06-26T12:54:43;7.20;;;3.00;;
68951;SDS011;56000;51.146;17.112;2023-06-26T12:57:17;5.60;;;3.30;;
68951;SDS011;56000;51.146;17.112;2023-06-26T12:59:50;3.50;;;2.50;;
68951;SDS011;56000;51.146;17.112;2023-06-26T13:02:23;3.00;;;2.60;;
68951;SDS011;56000;51.146;17.112;2023-06-26T13:04:56;3.70;;;2.60;;
68951;SDS011;56000;51.146;17.112;2023-06-26T13:07:30;4.40;;;2.80;;
68951;SDS011;56000;51.146;17.112;2023-06-26T13:10:03;2.70;;;2.30;;
68951;SDS011;56000;51.146;17.112;2023-06-26T13:12:38;3.00;;;2.50;;
68951;SDS011;56000;51.146;17.112;2023-06-26T13:15:12;2.80;;;2.50;;
68951;SDS011;56000;51.146;17.112;2023-06-26T13:17:45;2.60;;;2.40;;
68951;SDS011;56000;51.146;17.112;2023-06-26T13:20:18;2.60;;;2.40;;
68951;SDS011;56000;51.146;17.112;2023-06-26T13:22:51;5.70;;;2.70;;
68951;SDS011;56000;51.146;17.112;2023-06-26T13:25:24;3.00;;;2.70;;
68951;SDS011;56000;51.146;17.112;2023-06-26T13:28:02;3.20;;;2.50;;
68951;SDS011;56000;51.146;17.112;2023-06-26T13:30:35;3.60;;;2.50;;
68951;SDS011;56000;51.146;17.112;2023-06-26T13:33:09;3.40;;;2.70;;
68951;SDS011;56000;51.146;17.112;2023-06-26T13:35:42;3.90;;;3.00;;
68951;SDS011;56000;51.146;17.112;2023-06-26T13:38:15;3.80;;;2.30;;
68951;SDS011;56000;51.146;17.112;2023-06-26T13:40:48;3.40;;;2.40;;
68951;SDS011;56000;51.146;17.112;2023-06-26T13:43:22;4.10;;;2.60;;
68951;SDS011;56000;51.146;17.112;2023-06-26T13:45:57;3.90;;;2.50;;
68951;SDS011;56000;51.146;17.112;2023-06-26T13:48:31;4.40;;;2.70;;
68951;SDS011;56000;51.146;17.112;2023-06-26T13:51:04;4.00;;;2.30;;
68951;SDS011;56000;51.146;17.112;2023-06-26T13:53:38;3.80;;;2.00;;
68951;SDS011;56000;51.146;17.112;2023-06-26T13:56:11;7.00;;;2.50;;
68951;SDS011;56000;51.146;17.112;2023-06-26T13:58:44;3.40;;;2.80;;
68951;SDS011;56000;51.146;17.112;2023-06-26T14:01:17;5.40;;;3.00;;
68951;SDS011;56000;51.146;17.112;2023-06-26T14:03:50;2.80;;;2.50;;
68951;SDS011;56000;51.146;17.112;2023-06-26T14:06:23;5.10;;;2.40;;
68951;SDS011;56000;51.146;17.112;2023-06-26T14:08:57;3.60;;;2.30;;
68951;SDS011;56000;51.146;17.112;2023-06-26T14:11:30;7.90;;;2.70;;
68951;SDS011;56000;51.146;17.112;2023-06-26T14:14:04;4.00;;;2.40;;
68951;SDS011;56000;51.146;17.112;2023-06-26T14:16:37;3.70;;;2.50;;
68951;SDS011;56000;51.146;17.112;2023-06-26T14:19:11;2.60;;;2.40;;
68951;SDS011;56000;51.146;17.112;2023-06-26T14:21:45;3.60;;;2.20;;
68951;SDS011;56000;51.146;17.112;2023-06-26T14:24:18;7.20;;;2.80;;
68951;SDS011;56000;51.146;17.112;2023-06-26T14:26:51;9.70;;;3.00;;
68951;SDS011;56000;51.146;17.112;2023-06-26T14:29:24;3.60;;;2.30;;
68951;SDS011;56000;51.146;17.112;2023-06-26T14:31:57;4.40;;;3.10;;
68951;SDS011;56000;51.146;17.112;2023-06-26T14:34:30;3.10;;;2.90;;
68951;SDS011;56000;51.146;17.112;2023-06-26T14:37:04;4.80;;;3.00;;
68951;SDS011;56000;51.146;17.112;2023-06-26T14:39:38;8.00;;;2.90;;
68951;SDS011;56000;51.146;17.112;2023-06-26T14:42:11;2.80;;;2.50;;
68951;SDS011;56000;51.146;17.112;2023-06-26T14:44:46;2.50;;;2.30;;
68951;SDS011;56000;51.146;17.112;2023-06-26T14:47:21;3.20;;;2.60;;
68951;SDS011;56000;51.146;17.112;2023-06-26T14:49:54;4.50;;;2.50;;
68951;SDS011;56000;51.146;17.112;2023-06-26T14:52:27;4.30;;;2.70;;
68951;SDS011;56000;51.146;17.112;2023-06-26T14:55:00;4.70;;;2.30;;
68951;SDS011;56000;51.146;17.112;2023-06-26T14:57:36;7.30;;;2.60;;
68951;SDS011;56000;51.146;17.112;2023-06-26T15:00:12;4.50;;;2.60;;
68951;SDS011;56000;51.146;17.112;2023-06-26T15:02:46;5.70;;;3.80;;
68951;SDS011;56000;51.146;17.112;2023-06-26T15:05:27;6.60;;;2.60;;
68951;SDS011;56000;51.146;17.112;2023-06-26T15:08:00;4.30;;;2.60;;
68951;SDS011;56000;51.146;17.112;2023-06-26T15:10:34;10.90;;;2.60;;
68951;SDS011;56000;51.146;17.112;2023-06-26T15:13:07;4.50;;;2.30;;
68951;SDS011;56000;51.146;17.112;2023-06-26T15:15:40;2.70;;;2.50;;
68951;SDS011;56000;51.146;17.112;2023-06-26T15:18:13;3.80;;;2.40;;